Athens, WI

9:49 PM CDT on August 21, 2014 (GMT -0500)
Rib Falls Repair | Change Station
CLOSE
Current Station
Personal Weather Station
Location: Athens, WI
Elevation: 1348 ft
Nearby Weather Stations
Active Advisory: Special Statement

Elev 1348 ft 45.03 °N, 89.96 °W | Updated 48 seconds ago

Overcast
Overcast
66.8 °F
Feels Like 66.8 °F
N
0.0
Wind Variable Wind from ESE
Gusts 0.0 mph

Today
High -- | Low -- °F
--% Chance of Precip.
Yesterday
High -- | Low -- °F
Precip. -- in
6:08 AM 7:56 PM
Waning Crescent, 11% visible
Pressure 29.94 in
Visibility 3.0 miles
Clouds Overcast 400 ft
Dew Point 66 °F
Humidity 97%
Rainfall 0.05 in
Snow Depth Not available.
UV 0 out of 12
Pollen 6.80 out of 12
Air Quality Not available.
Flu Activity Not available.
METAR KMDZ 220235Z AUTO 09004KT 3SM BR OVC004 19/19 A2994 RMK AO2 LTG DSNT NW T01940191

More Conditions Fewer Conditions

Pressure 29.94 in
Visibility 3.0 miles
Clouds Overcast 400 ft
Dew Point 66 °F
Humidity 97%
Rainfall 0.05 in
Snow Depth Not available.
UV 0 out of 12
Pollen 6.80 out of 12
Air Quality Not available.
Flu Activity Not available.
METAR KMDZ 220235Z AUTO 09004KT 3SM BR OVC004 19/19 A2994 RMK AO2 LTG DSNT NW T01940191

More Conditions Fewer Conditions

10-Day Weather Forecast

Almanac

Astronomy

Aug. 21, 2014 Rise Set
Actual Time 6:08 AM CDT 7:56 PM CDT
Civil Twilight 5:37 AM CDT 8:27 PM CDT
Nautical Twilight 4:59 AM CDT 9:05 PM CDT
Astronomical Twilight 4:17 AM CDT 9:47 PM CDT
Moon 2:34 AM CDT (8/21) 5:29 PM CDT (8/21)
Length of Visible Light 14h 50m
Length of Day
13h 47m
Tomorrow will be 2m 54s shorter.
Waning Crescent, 11% of the Moon is Illuminated
Today
Waning Crescent
Aug 25
New
Sep 2
First Quarter
Sep 8
Full
Sep 15
Last Quarter

Today's Extremes

State Highs State Lows

Community

WunderPhotos

Upload Photos

1,746,109 photos uploaded!

WunderBlogs® & News

Nearby

Snow Depth

Station Depth Elevation
No new snow has been reported.

Earthquake Activity

City Distance Mag. Time & Date
No recent earthquake activity has been reported nearby.
Minimum magnitude displayed is 2.5.

Coastal Water Temperatures

Place Temperature
No Stations Reporting

Nearby Weather Stations